Time,TemperatureF,DewpointF,PressureIn,WindDirection,WindDirectionDegrees,WindSpeedMPH,WindSpeedGustMPH,Humidity,HourlyPrecipIn,Conditions,Clouds,dailyrainin,SoftwareType,DateUTC
2013-07-25 00:03:00,70.3,69.0,29.46,NW,317,0.0,0.0,96,0.00,,,0.00,weatherlink.com 1.10,2013-07-25 05:03:00,
2013-07-25 00:18:00,70.2,69.0,29.46,NW,317,0.0,0.0,96,0.00,,,0.00,weatherlink.com 1.10,2013-07-25 05:18:00,
2013-07-25 00:33:00,70.1,69.0,29.46,NW,317,0.0,0.0,96,0.00,,,0.00,weatherlink.com 1.10,2013-07-25 05:33:00,
2013-07-25 00:48:00,70.0,69.0,29.46,NW,317,0.0,0.0,96,0.00,,,0.00,weatherlink.com 1.10,2013-07-25 05:48:00,
2013-07-25 01:03:00,70.5,70.0,29.45,NW,317,0.0,0.0,97,0.00,,,0.00,weatherlink.com 1.10,2013-07-25 06:03:00,
2013-07-25 01:18:00,70.7,70.0,29.45,NW,317,0.0,0.0,96,0.00,,,0.00,weatherlink.com 1.10,2013-07-25 06:18:00,
2013-07-25 01:33:00,70.7,70.0,29.44,NW,317,0.0,0.0,96,0.00,,,0.00,weatherlink.com 1.10,2013-07-25 06:33:00,
2013-07-25 01:48:00,70.8,70.0,29.44,NW,317,0.0,0.0,96,0.00,,,0.00,weatherlink.com 1.10,2013-07-25 06:48:00,
2013-07-25 02:03:00,71.0,70.0,29.44,North,9,0.0,1.0,97,0.00,,,0.00,weatherlink.com 1.10,2013-07-25 07:03:00,
2013-07-25 02:18:00,70.9,70.0,29.44,North,360,0.0,0.0,96,0.00,,,0.00,weatherlink.com 1.10,2013-07-25 07:18:00,
2013-07-25 02:33:00,70.8,70.0,29.44,North,9,0.0,0.0,96,0.00,,,0.00,weatherlink.com 1.10,2013-07-25 07:33:00,
2013-07-25 02:48:00,70.7,70.0,29.44,North,9,0.0,0.0,96,0.00,,,0.00,weatherlink.com 1.10,2013-07-25 07:48:00,
2013-07-25 03:03:00,70.6,70.0,29.44,North,9,0.0,0.0,97,0.00,,,0.00,weatherlink.com 1.10,2013-07-25 08:03:00,
2013-07-25 03:18:00,70.6,70.0,29.45,NNE,13,0.0,0.0,97,0.00,,,0.00,weatherlink.com 1.10,2013-07-25 08:18:00,
2013-07-25 03:33:00,70.4,70.0,29.45,NNE,13,0.0,0.0,97,0.00,,,0.00,weatherlink.com 1.10,2013-07-25 08:33:00,
2013-07-25 03:48:00,70.3,69.0,29.45,NE,39,0.0,0.0,96,0.00,,,0.00,weatherlink.com 1.10,2013-07-25 08:48:00,
2013-07-25 04:03:00,70.1,69.0,29.46,NNE,28,0.0,1.0,96,0.00,,,0.00,weatherlink.com 1.10,2013-07-25 09:03:00,
2013-07-25 04:18:00,69.9,69.0,29.45,NNE,28,0.0,0.0,96,0.00,,,0.00,weatherlink.com 1.10,2013-07-25 09:18:00,
2013-07-25 04:33:00,69.4,68.0,29.46,NE,43,0.0,0.0,96,0.00,,,0.00,weatherlink.com 1.10,2013-07-25 09:33:00,
2013-07-25 04:48:00,69.1,68.0,29.47,NE,43,0.0,0.0,96,0.00,,,0.00,weatherlink.com 1.10,2013-07-25 09:48:00,
2013-07-25 05:03:00,68.8,68.0,29.47,NE,43,0.0,0.0,96,0.00,,,0.00,weatherlink.com 1.10,2013-07-25 10:03:00,
2013-07-25 05:18:00,68.6,68.0,29.47,NE,43,0.0,0.0,96,0.00,,,0.00,weatherlink.com 1.10,2013-07-25 10:18:00,
2013-07-25 05:33:00,68.4,67.0,29.47,NE,43,0.0,0.0,96,0.00,,,0.00,weatherlink.com 1.10,2013-07-25 10:33:00,
2013-07-25 05:48:00,68.1,67.0,29.49,NE,44,0.0,0.0,96,0.00,,,0.00,weatherlink.com 1.10,2013-07-25 10:48:00,
2013-07-25 06:03:00,67.9,67.0,29.49,NE,43,0.0,0.0,96,0.00,,,0.00,weatherlink.com 1.10,2013-07-25 11:03:00,
2013-07-25 06:18:00,67.8,67.0,29.50,NE,43,0.0,0.0,96,0.00,,,0.00,weatherlink.com 1.10,2013-07-25 11:18:00,
2013-07-25 06:33:00,67.8,67.0,29.50,NE,43,0.0,0.0,97,0.00,,,0.00,weatherlink.com 1.10,2013-07-25 11:33:00,
2013-07-25 06:48:00,67.8,67.0,29.50,NE,44,0.0,0.0,97,0.00,,,0.00,weatherlink.com 1.10,2013-07-25 11:48:00,
2013-07-25 07:03:00,68.0,67.0,29.50,NE,44,0.0,0.0,97,0.00,,,0.00,weatherlink.com 1.10,2013-07-25 12:03:00,
2013-07-25 07:18:00,68.3,68.0,29.51,NE,43,0.0,0.0,97,0.00,,,0.00,weatherlink.com 1.10,2013-07-25 12:18:00,
2013-07-25 07:33:00,68.8,68.0,29.51,NNW,333,0.0,0.0,97,0.00,,,0.00,weatherlink.com 1.10,2013-07-25 12:33:00,
2013-07-25 07:48:00,69.3,69.0,29.52,NNW,333,0.0,0.0,97,0.00,,,0.00,weatherlink.com 1.10,2013-07-25 12:48:00,
2013-07-25 08:03:00,69.6,69.0,29.52,NNW,346,0.0,0.0,96,0.00,,,0.00,weatherlink.com 1.10,2013-07-25 13:03:00,
2013-07-25 08:18:00,70.0,69.0,29.52,NNW,346,0.0,0.0,95,0.00,,,0.00,weatherlink.com 1.10,2013-07-25 13:18:00,
2013-07-25 08:33:00,70.8,70.0,29.52,NW,309,0.0,0.0,96,0.00,,,0.00,weatherlink.com 1.10,2013-07-25 13:33:00,
2013-07-25 08:48:00,71.6,70.0,29.52,NW,325,2.0,2.0,94,0.00,,,0.00,weatherlink.com 1.10,2013-07-25 13:48:00,
2013-07-25 09:03:00,72.2,69.0,29.52,NW,318,0.0,4.0,90,0.00,,,0.00,weatherlink.com 1.10,2013-07-25 14:03:00,
2013-07-25 09:18:00,72.5,69.0,29.52,NE,49,0.0,3.0,89,0.00,,,0.00,weatherlink.com 1.10,2013-07-25 14:18:00,
2013-07-25 09:33:00,73.3,70.0,29.52,NNW,327,1.0,4.0,88,0.00,,,0.00,weatherlink.com 1.10,2013-07-25 14:33:00,
2013-07-25 09:49:00,74.6,70.0,29.52,ENE,59,0.0,5.0,84,0.00,,,0.00,weatherlink.com 1.10,2013-07-25 14:49:00,
2013-07-25 10:04:00,74.9,70.0,29.52,North,360,0.0,4.0,85,0.00,,,0.00,weatherlink.com 1.10,2013-07-25 15:04:00,
2013-07-25 10:19:00,75.6,70.0,29.52,WNW,302,0.0,5.0,83,0.00,,,0.00,weatherlink.com 1.10,2013-07-25 15:19:00,
2013-07-25 10:34:00,76.3,69.0,29.52,WNW,300,0.0,4.0,79,0.00,,,0.00,weatherlink.com 1.10,2013-07-25 15:34:00,
2013-07-25 10:49:00,77.0,68.0,29.53,NNW,340,0.0,5.0,74,0.00,,,0.00,weatherlink.com 1.10,2013-07-25 15:49:00,
2013-07-25 11:04:00,77.8,69.0,29.53,NNW,336,0.0,5.0,73,0.00,,,0.00,weatherlink.com 1.10,2013-07-25 16:04:00,
2013-07-25 11:19:00,78.4,70.0,29.53,NW,319,2.0,4.0,74,0.00,,,0.00,weatherlink.com 1.10,2013-07-25 16:19:00,
2013-07-25 11:34:00,78.7,70.0,29.53,NW,309,0.0,0.0,75,0.00,,,0.00,weatherlink.com 1.10,2013-07-25 16:34:00,
2013-07-25 11:49:00,79.5,70.0,29.53,NNW,337,3.0,5.0,73,0.00,,,0.00,weatherlink.com 1.10,2013-07-25 16:49:00,
2013-07-25 12:04:00,80.3,69.0,29.54,West,277,0.0,4.0,68,0.00,,,0.00,weatherlink.com 1.10,2013-07-25 17:04:00,
2013-07-25 12:19:00,80.8,70.0,29.54,NNE,23,0.0,7.0,70,0.00,,,0.00,weatherlink.com 1.10,2013-07-25 17:19:00,
2013-07-25 12:35:00,81.5,69.0,29.54,NNW,341,1.0,7.0,66,0.00,,,0.00,weatherlink.com 1.10,2013-07-25 17:35:00,
2013-07-25 12:49:00,81.9,68.0,29.54,NNE,27,0.0,6.0,63,0.00,,,0.00,weatherlink.com 1.10,2013-07-25 17:49:00,
2013-07-25 13:04:00,82.2,68.0,29.54,NNW,329,0.0,5.0,62,0.00,,,0.00,weatherlink.com 1.10,2013-07-25 18:04:00,
2013-07-25 13:19:00,82.7,70.0,29.54,WNW,298,0.0,3.0,65,0.00,,,0.00,weatherlink.com 1.10,2013-07-25 18:19:00,
2013-07-25 13:34:00,82.6,68.0,29.54,East,96,0.0,6.0,61,0.00,,,0.00,weatherlink.com 1.10,2013-07-25 18:34:00,
2013-07-25 13:49:00,82.3,67.0,29.54,WNW,300,0.0,4.0,61,0.00,,,0.00,weatherlink.com 1.10,2013-07-25 18:49:00,
2013-07-25 14:04:00,82.1,67.0,29.54,North,351,0.0,8.0,60,0.00,,,0.00,weatherlink.com 1.10,2013-07-25 19:04:00,
2013-07-25 14:19:00,82.2,67.0,29.53,NNW,335,0.0,4.0,60,0.00,,,0.00,weatherlink.com 1.10,2013-07-25 19:19:00,
2013-07-25 14:49:00,82.8,68.0,29.54,NNE,17,0.0,5.0,62,0.00,,,0.00,weatherlink.com 1.10,2013-07-25 19:49:00,
2013-07-25 15:04:00,82.8,68.0,29.54,NNW,344,0.0,3.0,61,0.00,,,0.00,weatherlink.com 1.10,2013-07-25 20:04:00,
2013-07-25 15:19:00,82.9,68.0,29.54,WNW,290,0.0,5.0,62,0.00,,,0.00,weatherlink.com 1.10,2013-07-25 20:19:00,
2013-07-25 15:34:00,83.2,68.0,29.54,NW,321,0.0,5.0,60,0.00,,,0.00,weatherlink.com 1.10,2013-07-25 20:34:00,
2013-07-25 15:49:00,83.5,68.0,29.54,NW,316,0.0,6.0,60,0.00,,,0.00,weatherlink.com 1.10,2013-07-25 20:49:00,
2013-07-25 16:04:00,82.8,69.0,29.54,NNE,12,2.0,3.0,63,0.00,,,0.00,weatherlink.com 1.10,2013-07-25 21:04:00,
2013-07-25 16:20:00,82.4,66.0,29.54,NNW,335,0.0,5.0,57,0.00,,,0.00,weatherlink.com 1.10,2013-07-25 21:20:00,
2013-07-25 16:34:00,82.3,67.0,29.54,WNW,300,4.0,5.0,60,0.00,,,0.00,weatherlink.com 1.10,2013-07-25 21:34:00,
2013-07-25 16:50:00,82.3,67.0,29.54,WNW,298,0.0,5.0,61,0.00,,,0.00,weatherlink.com 1.10,2013-07-25 21:50:00,
2013-07-25 17:04:00,82.1,67.0,29.54,NW,323,0.0,6.0,60,0.00,,,0.00,weatherlink.com 1.10,2013-07-25 22:04:00,
2013-07-25 17:19:00,82.0,69.0,29.54,NW,308,0.0,5.0,65,0.00,,,0.00,weatherlink.com 1.10,2013-07-25 22:19:00,
2013-07-25 17:35:00,81.5,69.0,29.54,NNW,327,3.0,4.0,65,0.00,,,0.00,weatherlink.com 1.10,2013-07-25 22:35:00,
2013-07-25 17:49:00,81.5,70.0,29.54,NW,324,0.0,3.0,69,0.00,,,0.00,weatherlink.com 1.10,2013-07-25 22:49:00,
2013-07-25 18:04:00,80.4,71.0,29.54,NNW,337,0.0,2.0,72,0.00,,,0.00,weatherlink.com 1.10,2013-07-25 23:04:00,
2013-07-25 18:19:00,79.5,68.0,29.54,NNW,334,0.0,4.0,69,0.00,,,0.00,weatherlink.com 1.10,2013-07-25 23:19:00,
2013-07-25 18:49:00,78.7,71.0,29.55,NNW,342,0.0,2.0,76,0.00,,,0.00,weatherlink.com 1.10,2013-07-25 23:49:00,
2013-07-25 19:04:00,77.9,71.0,29.55,NW,325,0.0,1.0,78,0.00,,,0.00,weatherlink.com 1.10,2013-07-26 00:04:00,
2013-07-25 19:19:00,77.0,71.0,29.55,NW,325,0.0,0.0,81,0.00,,,0.00,weatherlink.com 1.10,2013-07-26 00:19:00,
2013-07-25 19:35:00,75.8,70.0,29.55,NW,325,0.0,0.0,83,0.00,,,0.00,weatherlink.com 1.10,2013-07-26 00:35:00,
2013-07-25 19:49:00,74.6,70.0,29.55,NW,325,0.0,0.0,85,0.00,,,0.00,weatherlink.com 1.10,2013-07-26 00:49:00,
2013-07-25 20:04:00,73.3,69.0,29.55,NW,325,0.0,0.0,86,0.00,,,0.00,weatherlink.com 1.10,2013-07-26 01:04:00,
2013-07-25 20:19:00,72.5,69.0,29.56,NW,325,0.0,0.0,87,0.00,,,0.00,weatherlink.com 1.10,2013-07-26 01:19:00,
2013-07-25 20:34:00,71.8,68.0,29.56,NW,325,0.0,0.0,88,0.00,,,0.00,weatherlink.com 1.10,2013-07-26 01:34:00,
2013-07-25 20:49:00,71.1,68.0,29.56,NW,325,0.0,0.0,89,0.00,,,0.00,weatherlink.com 1.10,2013-07-26 01:49:00,
2013-07-25 21:04:00,70.6,68.0,29.57,NW,325,0.0,0.0,90,0.00,,,0.00,weatherlink.com 1.10,2013-07-26 02:04:00,
2013-07-25 21:20:00,70.2,67.0,29.57,NW,325,0.0,0.0,90,0.00,,,0.00,weatherlink.com 1.10,2013-07-26 02:20:00,
2013-07-25 21:35:00,69.9,67.0,29.58,NW,325,0.0,0.0,91,0.00,,,0.00,weatherlink.com 1.10,2013-07-26 02:35:00,
2013-07-25 21:50:00,69.5,67.0,29.58,NW,325,0.0,0.0,91,0.00,,,0.00,weatherlink.com 1.10,2013-07-26 02:50:00,
2013-07-25 22:05:00,69.3,67.0,29.58,NW,325,0.0,0.0,92,0.00,,,0.00,weatherlink.com 1.10,2013-07-26 03:05:00,
2013-07-25 22:20:00,69.0,67.0,29.58,NW,325,0.0,0.0,92,0.00,,,0.00,weatherlink.com 1.10,2013-07-26 03:20:00,
2013-07-25 22:35:00,68.8,66.0,29.58,NW,325,0.0,0.0,92,0.00,,,0.00,weatherlink.com 1.10,2013-07-26 03:35:00,
2013-07-25 22:50:00,68.6,67.0,29.58,NW,325,0.0,0.0,93,0.00,,,0.00,weatherlink.com 1.10,2013-07-26 03:50:00,
2013-07-25 23:05:00,68.4,66.0,29.58,NW,325,0.0,0.0,93,0.00,,,0.00,weatherlink.com 1.10,2013-07-26 04:05:00,
2013-07-25 23:20:00,68.2,66.0,29.58,NW,325,0.0,0.0,93,0.00,,,0.00,weatherlink.com 1.10,2013-07-26 04:20:00,
2013-07-25 23:35:00,68.1,66.0,29.58,NW,325,0.0,0.0,94,0.00,,,0.00,weatherlink.com 1.10,2013-07-26 04:35:00,
2013-07-25 23:50:00,68.0,66.0,29.58,NW,325,0.0,0.0,94,0.00,,,0.00,weatherlink.com 1.10,2013-07-26 04:50:00,